createdAt,value
2022-11-13T00:02:02.507Z,76.14
2022-11-13T00:07:25.168Z,75.91
2022-11-13T00:12:46.364Z,75.76
2022-11-13T00:18:07.667Z,75.71
2022-11-13T00:23:34.566Z,75.95
2022-11-13T00:28:57.033Z,75.83
2022-11-13T00:34:46.986Z,75.99
2022-11-13T00:40:00.935Z,75.77
2022-11-13T00:45:22.299Z,76.13
2022-11-13T00:50:43.416Z,76.38
2022-11-13T00:56:06.966Z,76.61
2022-11-13T01:01:28.381Z,77.55
2022-11-13T01:06:50.016Z,78.15
2022-11-13T01:12:14.172Z,77.97
2022-11-13T01:17:35.349Z,78.22
2022-11-13T01:22:56.502Z,76.98
2022-11-13T01:28:19.176Z,77.09
2022-11-13T01:33:40.346Z,77.17
2022-11-13T01:39:01.747Z,77.36
2022-11-13T01:44:24.536Z,77.44
2022-11-13T01:49:47.575Z,77.38
2022-11-13T01:55:11.569Z,77.48
2022-11-13T02:00:34.552Z,77.47
2022-11-13T02:05:56.025Z,77.47
2022-11-13T02:11:18.113Z,76.84
2022-11-13T02:16:42.499Z,76.63
2022-11-13T02:22:11.608Z,76.32
2022-11-13T02:27:39.210Z,76.46
2022-11-13T02:33:01.150Z,77.62
2022-11-13T02:38:22.450Z,78.20
2022-11-13T02:43:44.979Z,78.29
2022-11-13T02:49:07.685Z,78.47
2022-11-13T02:54:28.663Z,78.81
2022-11-13T02:59:51.370Z,78.67
2022-11-13T03:05:13.787Z,78.27
2022-11-13T03:10:35.439Z,78.70
2022-11-13T03:15:58.076Z,78.84
2022-11-13T03:21:19.474Z,79.20
2022-11-13T03:26:40.829Z,79.08
2022-11-13T03:32:04.201Z,78.53
2022-11-13T03:37:25.612Z,78.11
2022-11-13T03:42:46.725Z,78.19
2022-11-13T03:48:09.876Z,78.02
2022-11-13T03:53:31.275Z,77.35
2022-11-13T03:58:52.515Z,77.59
2022-11-13T04:04:15.503Z,77.99
2022-11-13T04:09:36.955Z,78.25
2022-11-13T04:14:58.253Z,79.05
2022-11-13T04:20:20.831Z,79.51
2022-11-13T04:25:41.918Z,79.62
2022-11-13T04:31:03.393Z,79.34
2022-11-13T04:36:25.881Z,78.91
2022-11-13T04:42:04.414Z,78.89
2022-11-13T04:47:25.749Z,78.51
2022-11-13T04:52:48.415Z,78.10
2022-11-13T04:58:09.914Z,77.84
2022-11-13T05:03:31.073Z,76.93
2022-11-13T05:08:53.632Z,75.24
2022-11-13T05:14:15.474Z,75.17
2022-11-13T05:19:36.976Z,75.86
2022-11-13T05:24:59.869Z,77.37
2022-11-13T05:30:20.896Z,78.03
2022-11-13T05:35:42.230Z,78.02
2022-11-13T05:41:06.244Z,77.35
2022-11-13T05:46:29.884Z,76.33
2022-11-13T05:51:51.228Z,75.58
2022-11-13T05:57:13.833Z,75.38
2022-11-13T06:02:35.968Z,75.01
2022-11-13T06:07:57.368Z,74.63
2022-11-13T06:13:19.829Z,76.38
2022-11-13T06:18:42.946Z,76.85
2022-11-13T06:24:04.963Z,77.58
2022-11-13T06:29:28.043Z,77.55
2022-11-13T06:34:49.809Z,78.08
2022-11-13T06:40:12.123Z,78.60
2022-11-13T06:45:34.884Z,79.15
2022-11-13T06:50:56.257Z,79.33
2022-11-13T06:56:18.931Z,78.62
2022-11-13T07:01:41.955Z,78.65
2022-11-13T07:07:04.131Z,80.02
2022-11-13T07:12:25.716Z,78.65
2022-11-13T07:17:48.663Z,78.27
2022-11-13T07:23:10.733Z,76.88
2022-11-13T07:28:32.068Z,76.51
2022-11-13T07:33:54.668Z,76.53
2022-11-13T07:39:15.779Z,73.75
2022-11-13T07:50:19.707Z,69.31
2022-11-13T07:55:40.921Z,67.71
2022-11-13T08:01:04.114Z,65.66
2022-11-13T08:06:28.002Z,66.28
2022-11-13T08:11:49.207Z,65.18
2022-11-13T08:17:10.516Z,63.75
2022-11-13T08:22:33.443Z,62.42
2022-11-13T08:27:55.765Z,60.96
2022-11-13T08:33:17.442Z,60.63
2022-11-13T08:38:39.975Z,59.19
2022-11-13T08:44:01.321Z,58.95
2022-11-13T08:49:22.827Z,57.42
2022-11-13T08:54:45.376Z,57.37
2022-11-13T09:00:07.655Z,56.09
2022-11-13T09:05:29.251Z,54.63
2022-11-13T09:10:52.007Z,54.60
2022-11-13T09:16:13.076Z,55.03
2022-11-13T09:21:34.255Z,56.97
2022-11-13T09:26:56.823Z,59.38
2022-11-13T09:32:18.432Z,59.73
2022-11-13T09:37:40.215Z,58.56
2022-11-13T09:43:05.543Z,55.76
2022-11-13T09:48:32.880Z,54.47
2022-11-13T09:53:54.616Z,51.17
2022-11-13T09:59:26.443Z,48.28
2022-11-13T10:04:59.284Z,45.04
2022-11-13T10:10:37.732Z,46.22
2022-11-13T10:16:10.399Z,47.72
2022-11-13T10:21:36.260Z,47.10
2022-11-13T10:27:00.419Z,42.41
2022-11-13T10:32:26.844Z,39.88
2022-11-13T10:37:57.686Z,37.12
2022-11-13T10:43:22.409Z,35.18
2022-11-13T10:48:45.379Z,33.72
2022-11-13T10:54:20.943Z,31.99
2022-11-13T10:59:44.510Z,31.49
2022-11-13T11:05:17.795Z,31.73
2022-11-13T11:11:00.996Z,30.85
2022-11-13T11:16:24.883Z,30.86
2022-11-13T11:21:49.677Z,30.41
2022-11-13T11:27:16.047Z,31.11
2022-11-13T11:32:43.530Z,30.50
2022-11-13T11:38:11.632Z,30.66
2022-11-13T11:43:43.925Z,30.32
2022-11-13T11:49:06.300Z,31.62
2022-11-13T11:54:41.224Z,30.68
2022-11-13T12:00:07.443Z,31.02
2022-11-13T12:05:34.082Z,30.32
2022-11-13T12:11:04.060Z,30.83
2022-11-13T12:16:33.665Z,31.57
2022-11-13T12:22:06.061Z,32.78
2022-11-13T12:27:35.689Z,33.73
2022-11-13T12:33:21.577Z,34.54
2022-11-13T12:38:48.567Z,34.35
2022-11-13T12:44:24.198Z,34.22
2022-11-13T12:49:45.706Z,34.00
2022-11-13T12:55:09.502Z,34.25
2022-11-13T13:00:34.750Z,33.43
2022-11-13T13:06:12.320Z,33.97
2022-11-13T13:11:44.904Z,33.56
2022-11-13T13:17:19.154Z,32.84
2022-11-13T13:22:41.283Z,33.47
2022-11-13T13:28:05.745Z,33.82
2022-11-13T13:33:36.739Z,33.26
2022-11-13T13:39:07.937Z,33.42
2022-11-13T13:44:45.219Z,33.52
2022-11-13T13:50:15.640Z,33.64
2022-11-13T13:55:39.994Z,33.84
2022-11-13T14:01:18.263Z,34.49
2022-11-13T14:06:50.975Z,34.51
2022-11-13T14:12:20.064Z,35.03
2022-11-13T14:17:41.660Z,35.00
2022-11-13T14:23:04.992Z,35.41
2022-11-13T14:28:28.892Z,35.28
2022-11-13T14:33:51.241Z,35.55
2022-11-13T14:39:23.116Z,36.89
2022-11-13T14:44:44.412Z,37.98
2022-11-13T14:50:20.227Z,36.31
2022-11-13T14:55:53.870Z,35.78
2022-11-13T15:01:17.300Z,36.93
2022-11-13T15:06:41.707Z,37.70
2022-11-13T15:12:04.612Z,39.78
2022-11-13T15:17:25.868Z,41.04
2022-11-13T15:22:47.235Z,43.12
2022-11-13T15:28:09.832Z,44.58
2022-11-13T15:33:31.512Z,45.43
2022-11-13T15:38:52.977Z,46.32
2022-11-13T15:44:17.070Z,46.58
2022-11-13T15:49:40.744Z,47.45
2022-11-13T15:55:19.323Z,48.53
2022-11-13T16:00:42.943Z,49.54
2022-11-13T16:06:04.337Z,50.49
2022-11-13T16:11:25.607Z,51.22
2022-11-13T16:16:50.529Z,51.82
2022-11-13T16:22:19.995Z,52.44
2022-11-13T16:27:41.471Z,54.29
2022-11-13T16:33:05.857Z,56.46
2022-11-13T16:38:27.292Z,57.93
2022-11-13T16:43:48.241Z,58.85
2022-11-13T16:49:18.821Z,59.57
2022-11-13T16:54:40.475Z,60.35
2022-11-13T17:00:01.709Z,61.04
2022-11-13T17:05:25.142Z,61.31
2022-11-13T17:10:46.301Z,61.74
2022-11-13T17:16:07.847Z,62.52
2022-11-13T17:21:30.971Z,62.92
2022-11-13T17:26:52.494Z,63.22
2022-11-13T17:32:13.679Z,63.58
2022-11-13T17:37:36.455Z,63.41
2022-11-13T17:42:57.742Z,63.47
2022-11-13T17:48:20.067Z,63.84
2022-11-13T17:53:43.715Z,63.97
2022-11-13T17:59:05.248Z,63.98
2022-11-13T18:04:26.816Z,63.81
2022-11-13T18:09:49.380Z,64.04
2022-11-13T18:15:10.870Z,64.83
2022-11-13T18:20:32.849Z,65.15
2022-11-13T18:25:55.739Z,65.34
2022-11-13T18:31:20.052Z,65.42
2022-11-13T18:36:41.204Z,65.99
2022-11-13T18:42:04.875Z,66.61
2022-11-13T18:47:26.431Z,66.71
2022-11-13T18:52:47.769Z,66.61
2022-11-13T18:58:12.701Z,66.66
2022-11-13T19:03:34.832Z,67.26
2022-11-13T19:08:57.779Z,67.26
2022-11-13T19:14:20.398Z,68.15
2022-11-13T19:19:42.270Z,68.64
2022-11-13T19:25:03.827Z,68.64
2022-11-13T19:30:27.245Z,68.67
2022-11-13T19:35:48.780Z,68.53
2022-11-13T19:41:11.024Z,67.90
2022-11-13T19:46:34.145Z,67.97
2022-11-13T19:51:55.727Z,68.08
2022-11-13T19:57:17.174Z,68.11
2022-11-13T20:02:39.743Z,68.89
2022-11-13T20:08:01.037Z,70.53
2022-11-13T20:13:22.300Z,70.50
2022-11-13T20:18:45.604Z,70.12
2022-11-13T20:24:07.629Z,68.86
2022-11-13T20:29:28.912Z,69.18
2022-11-13T20:34:51.559Z,69.06
2022-11-13T20:40:13.021Z,69.52
2022-11-13T20:45:34.528Z,69.98
2022-11-13T20:50:57.285Z,70.00
2022-11-13T20:56:20.591Z,69.59
2022-11-13T21:01:42.069Z,69.71
2022-11-13T21:07:05.147Z,69.74
2022-11-13T21:12:26.810Z,70.41
2022-11-13T21:17:48.031Z,70.58
2022-11-13T21:23:10.760Z,70.77
2022-11-13T21:28:33.950Z,70.66
2022-11-13T21:33:55.841Z,70.45
2022-11-13T21:39:18.652Z,71.12
2022-11-13T21:44:39.797Z,72.01
2022-11-13T21:50:00.924Z,72.73
2022-11-13T21:55:23.751Z,73.03
2022-11-13T22:00:46.957Z,74.15
2022-11-13T22:06:16.665Z,73.92
2022-11-13T22:11:39.510Z,73.51
2022-11-13T22:17:00.756Z,72.98
2022-11-13T22:22:22.009Z,72.83
2022-11-13T22:34:18.182Z,72.88
2022-11-13T22:39:40.982Z,72.95
2022-11-13T22:45:07.261Z,73.17
2022-11-13T22:50:36.673Z,73.10
2022-11-13T22:56:03.762Z,73.23
2022-11-13T23:01:26.657Z,72.63
2022-11-13T23:06:47.685Z,72.51
2022-11-13T23:12:10.477Z,73.13
2022-11-13T23:17:31.716Z,73.20
2022-11-13T23:22:52.907Z,72.27
2022-11-13T23:28:15.597Z,72.57
2022-11-13T23:33:38.077Z,72.60
2022-11-13T23:38:59.355Z,73.00
2022-11-13T23:44:21.969Z,72.17
2022-11-13T23:49:43.826Z,72.15
2022-11-13T23:55:05.863Z,73.33
